createdAt,value
2017-11-26T00:00:22.202Z,7.67
2017-11-26T00:02:51.360Z,8.17
2017-11-26T00:05:20.893Z,8.50
2017-11-26T00:07:50.708Z,8.03
2017-11-26T00:10:20.297Z,7.70
2017-11-26T00:12:50.876Z,6.80
2017-11-26T00:15:21.113Z,7.63
2017-11-26T00:17:51.890Z,7.17
2017-11-26T00:20:21.628Z,8.23
2017-11-26T00:22:50.505Z,6.93
2017-11-26T00:25:18.497Z,6.93
2017-11-26T00:27:47.726Z,7.40
2017-11-26T00:30:17.028Z,6.97
2017-11-26T00:32:47.039Z,7.20
2017-11-26T00:35:15.262Z,7.07
2017-11-26T00:37:44.036Z,7.10
2017-11-26T00:40:13.071Z,7.00
2017-11-26T00:42:41.997Z,6.63
2017-11-26T00:45:13.082Z,6.37
2017-11-26T00:47:42.401Z,6.67
2017-11-26T00:50:11.168Z,6.50
2017-11-26T00:52:38.766Z,5.97
2017-11-26T00:55:10.309Z,5.70
2017-11-26T00:57:40.059Z,6.90
2017-11-26T01:00:07.578Z,6.30
2017-11-26T01:02:36.525Z,7.53
2017-11-26T01:05:06.540Z,6.83
2017-11-26T01:07:37.304Z,6.77
2017-11-26T01:10:07.923Z,6.40
2017-11-26T01:12:36.821Z,7.13
2017-11-26T01:15:06.346Z,6.57
2017-11-26T01:17:36.128Z,5.83
2017-11-26T01:20:06.395Z,6.80
2017-11-26T01:22:40.254Z,6.50
2017-11-26T01:25:09.944Z,6.67
2017-11-26T01:27:38.737Z,6.83
2017-11-26T01:30:09.741Z,6.77
2017-11-26T01:32:40.050Z,6.27
2017-11-26T01:35:08.359Z,6.87
2017-11-26T01:37:37.272Z,7.03
2017-11-26T01:40:07.305Z,6.37
2017-11-26T01:42:35.675Z,6.80
2017-11-26T01:45:06.755Z,6.53
2017-11-26T01:47:36.760Z,7.10
2017-11-26T01:50:05.742Z,6.77
2017-11-26T01:52:37.175Z,7.13
2017-11-26T01:55:08.997Z,7.40
2017-11-26T01:57:37.158Z,8.30
2017-11-26T02:00:06.814Z,7.47
2017-11-26T02:02:34.534Z,7.17
2017-11-26T02:05:02.796Z,6.87
2017-11-26T02:07:32.637Z,7.47
2017-11-26T02:10:00.644Z,7.00
2017-11-26T02:12:29.746Z,7.57
2017-11-26T02:14:59.130Z,7.57
2017-11-26T02:17:27.677Z,7.37
2017-11-26T02:19:55.750Z,8.17
2017-11-26T02:22:24.906Z,9.40
2017-11-26T02:24:54.018Z,7.60
2017-11-26T02:27:23.922Z,7.90
2017-11-26T02:29:52.920Z,7.97
2017-11-26T02:32:32.164Z,9.13
2017-11-26T02:35:12.477Z,7.97
2017-11-26T02:37:41.222Z,7.90
2017-11-26T02:40:11.658Z,8.23
2017-11-26T02:42:40.138Z,8.10
2017-11-26T02:45:08.411Z,9.57
2017-11-26T02:47:37.249Z,7.93
2017-11-26T02:50:07.977Z,8.53
2017-11-26T02:52:36.213Z,8.00
2017-11-26T02:55:05.345Z,8.10
2017-11-26T02:57:34.335Z,7.97
2017-11-26T03:00:01.901Z,8.77
2017-11-26T03:02:30.646Z,8.30
2017-11-26T03:04:59.449Z,7.93
2017-11-26T03:07:29.063Z,8.00
2017-11-26T03:09:57.974Z,8.20
2017-11-26T03:12:26.507Z,8.53
2017-11-26T03:14:55.458Z,7.43
2017-11-26T03:17:25.012Z,7.80
2017-11-26T03:19:53.923Z,8.70
2017-11-26T03:22:21.872Z,7.70
2017-11-26T03:24:52.701Z,8.10
2017-11-26T03:27:22.112Z,8.47
2017-11-26T03:29:51.843Z,9.57
2017-11-26T03:32:21.293Z,8.43
2017-11-26T03:34:52.169Z,9.07
2017-11-26T03:37:21.528Z,9.17
2017-11-26T03:39:52.986Z,7.47
2017-11-26T03:42:23.030Z,7.77
2017-11-26T03:44:52.245Z,8.57
2017-11-26T03:47:21.976Z,9.20
2017-11-26T03:49:51.503Z,8.53
2017-11-26T03:52:21.017Z,8.93
2017-11-26T03:54:49.841Z,9.20
2017-11-26T03:57:19.376Z,8.70
2017-11-26T03:59:47.507Z,9.40
2017-11-26T04:02:16.826Z,9.10
2017-11-26T04:04:46.486Z,9.43
2017-11-26T04:07:15.060Z,8.50
2017-11-26T04:09:45.120Z,9.37
2017-11-26T04:12:13.000Z,8.87
2017-11-26T04:14:42.090Z,8.23
2017-11-26T04:17:09.613Z,9.20
2017-11-26T04:19:38.728Z,9.03
2017-11-26T04:22:09.306Z,8.93
2017-11-26T04:24:39.521Z,8.20
2017-11-26T04:27:08.673Z,9.80
2017-11-26T04:29:38.669Z,8.77
2017-11-26T04:32:08.396Z,7.77
2017-11-26T04:34:38.997Z,7.83
2017-11-26T04:37:07.056Z,6.50
2017-11-26T04:39:36.623Z,6.53
2017-11-26T04:42:05.710Z,6.20
2017-11-26T04:44:34.857Z,8.07
2017-11-26T04:47:04.327Z,6.23
2017-11-26T04:49:33.249Z,5.83
2017-11-26T04:52:01.204Z,5.90
2017-11-26T04:54:31.249Z,5.53
2017-11-26T04:57:01.564Z,8.00
2017-11-26T04:59:30.234Z,5.67
2017-11-26T05:01:57.850Z,5.10
2017-11-26T05:04:26.652Z,4.33
2017-11-26T05:06:55.050Z,4.70
2017-11-26T05:09:25.583Z,4.60
2017-11-26T05:11:54.587Z,3.77
2017-11-26T05:14:25.080Z,4.10
2017-11-26T05:16:53.312Z,4.50
2017-11-26T05:19:22.248Z,4.57
2017-11-26T05:21:51.496Z,4.30
2017-11-26T05:24:19.621Z,4.27
2017-11-26T05:26:49.175Z,5.10
2017-11-26T05:29:19.557Z,5.20
2017-11-26T05:31:49.113Z,4.27
2017-11-26T05:34:18.318Z,4.30
2017-11-26T05:36:47.230Z,4.33
2017-11-26T05:39:15.228Z,6.83
2017-11-26T05:41:43.958Z,5.47
2017-11-26T05:44:12.395Z,4.50
2017-11-26T05:46:41.150Z,4.30
2017-11-26T05:49:09.585Z,4.53
2017-11-26T05:51:37.480Z,4.83
2017-11-26T05:54:06.994Z,3.97
2017-11-26T05:56:35.914Z,3.73
2017-11-26T05:59:06.759Z,4.00
2017-11-26T06:01:36.611Z,3.77
2017-11-26T06:04:06.521Z,4.43
2017-11-26T06:06:35.336Z,4.17
2017-11-26T06:09:04.683Z,3.63
2017-11-26T06:11:34.000Z,4.10
2017-11-26T06:14:04.536Z,5.03
2017-11-26T06:16:33.690Z,4.00
2017-11-26T06:19:03.512Z,3.90
2017-11-26T06:21:32.320Z,6.50
2017-11-26T06:24:01.077Z,5.50
2017-11-26T06:26:29.851Z,4.20
2017-11-26T06:28:59.297Z,5.07
2017-11-26T06:31:29.529Z,4.37
2017-11-26T06:33:58.608Z,4.73
2017-11-26T06:36:28.408Z,4.87
2017-11-26T06:38:56.773Z,4.70
2017-11-26T06:41:26.026Z,4.00
2017-11-26T06:43:56.484Z,4.90
2017-11-26T06:46:25.516Z,3.90
2017-11-26T06:48:54.436Z,4.10
2017-11-26T06:51:23.589Z,3.93
2017-11-26T06:53:52.401Z,4.80
2017-11-26T06:56:20.680Z,4.00
2017-11-26T06:58:49.608Z,3.93
2017-11-26T07:01:20.735Z,3.90
2017-11-26T07:03:50.331Z,3.90
2017-11-26T07:06:19.031Z,5.03
2017-11-26T07:08:48.808Z,4.53
2017-11-26T07:11:18.240Z,6.30
2017-11-26T07:13:48.163Z,4.87
2017-11-26T07:16:16.015Z,6.53
2017-11-26T07:18:46.110Z,5.33
2017-11-26T07:21:14.842Z,4.33
2017-11-26T07:26:18.002Z,6.43
2017-11-26T07:28:47.725Z,5.07
2017-11-26T07:31:19.506Z,6.70
2017-11-26T07:33:48.153Z,5.60
2017-11-26T07:36:17.195Z,4.43
2017-11-26T07:38:47.645Z,4.40
2017-11-26T07:41:15.679Z,4.27
2017-11-26T07:43:44.483Z,4.20
2017-11-26T07:46:14.234Z,3.63
2017-11-26T07:48:42.933Z,3.90
2017-11-26T07:51:12.002Z,4.00
2017-11-26T07:53:41.457Z,3.57
2017-11-26T07:56:12.713Z,5.17
2017-11-26T07:58:42.675Z,3.70
2017-11-26T08:01:12.095Z,3.97
2017-11-26T08:03:41.027Z,3.90
2017-11-26T08:06:10.100Z,5.63
2017-11-26T08:08:38.794Z,3.50
2017-11-26T08:11:09.243Z,4.47
2017-11-26T08:13:38.926Z,8.63
2017-11-26T08:16:08.329Z,6.33
2017-11-26T08:18:36.890Z,3.77
2017-11-26T08:21:06.628Z,5.00
2017-11-26T08:23:34.629Z,4.00
2017-11-26T08:26:02.610Z,3.67
2017-11-26T08:28:30.884Z,4.33
2017-11-26T08:30:59.525Z,3.77
2017-11-26T08:33:28.237Z,4.57
2017-11-26T08:35:56.815Z,4.20
2017-11-26T08:38:25.819Z,3.50
2017-11-26T08:40:55.721Z,4.77
2017-11-26T08:43:24.238Z,5.47
2017-11-26T08:45:53.641Z,5.83
2017-11-26T08:48:22.864Z,3.57
2017-11-26T08:50:52.414Z,3.57
2017-11-26T08:53:21.320Z,5.63
2017-11-26T08:55:50.211Z,4.97
2017-11-26T08:58:19.984Z,6.30
2017-11-26T09:00:51.444Z,6.13
2017-11-26T09:03:20.642Z,5.90
2017-11-26T09:05:50.691Z,4.67
2017-11-26T09:08:20.678Z,5.47
2017-11-26T09:10:49.097Z,4.03
2017-11-26T09:13:17.885Z,8.73
2017-11-26T09:15:46.932Z,5.43
2017-11-26T09:18:15.080Z,3.37
2017-11-26T09:20:43.986Z,7.60
2017-11-26T09:23:14.105Z,4.67
2017-11-26T09:25:43.102Z,4.27
2017-11-26T09:28:11.895Z,6.10
2017-11-26T09:30:41.187Z,5.97
2017-11-26T09:33:10.908Z,7.07
2017-11-26T09:35:38.802Z,5.60
2017-11-26T09:38:08.720Z,4.17
2017-11-26T09:40:37.619Z,4.07
2017-11-26T09:43:06.498Z,6.50
2017-11-26T09:45:35.976Z,6.23
2017-11-26T09:48:06.713Z,5.10
2017-11-26T09:50:36.230Z,5.13
2017-11-26T09:53:05.124Z,11.50
2017-11-26T09:55:35.231Z,5.53
2017-11-26T09:58:04.244Z,8.40
2017-11-26T10:00:34.340Z,4.43
2017-11-26T10:03:02.359Z,3.30
2017-11-26T10:05:30.958Z,5.27
2017-11-26T10:07:59.492Z,4.10
2017-11-26T10:10:28.553Z,4.10
2017-11-26T10:12:58.290Z,17.20
2017-11-26T10:15:26.795Z,3.40
2017-11-26T10:30:07.364Z,7.67
2017-11-26T10:32:34.974Z,4.30
2017-11-26T10:35:02.619Z,5.47
2017-11-26T10:37:30.222Z,3.70
2017-11-26T10:39:57.718Z,4.67
2017-11-26T10:42:26.027Z,3.90
2017-11-26T10:44:53.658Z,3.83
2017-11-26T10:47:21.271Z,6.03
2017-11-26T10:49:48.823Z,4.40
2017-11-26T10:52:17.021Z,4.03
2017-11-26T10:54:44.618Z,6.40
2017-11-26T10:57:12.230Z,4.03
2017-11-26T10:59:39.869Z,6.37
2017-11-26T11:02:07.453Z,4.63
2017-11-26T11:04:35.026Z,6.80
2017-11-26T11:07:02.593Z,3.37
2017-11-26T11:09:30.124Z,4.10
2017-11-26T11:11:57.756Z,7.50
2017-11-26T11:14:25.422Z,5.17
2017-11-26T11:16:53.074Z,5.33
2017-11-26T11:19:20.644Z,7.80
2017-11-26T11:21:48.166Z,4.63
2017-11-26T11:24:15.850Z,3.90
2017-11-26T11:26:43.413Z,3.80
2017-11-26T11:29:11.757Z,4.97
2017-11-26T11:31:39.269Z,6.70
2017-11-26T11:34:06.855Z,4.40
2017-11-26T11:36:34.403Z,3.73
2017-11-26T11:39:01.939Z,6.57
2017-11-26T11:41:29.597Z,3.57
2017-11-26T11:43:57.122Z,6.50
2017-11-26T11:46:24.705Z,7.57
2017-11-26T11:48:52.232Z,4.10
2017-11-26T11:51:19.791Z,3.97
2017-11-26T11:53:47.402Z,5.03
2017-11-26T11:56:14.942Z,5.23
2017-11-26T11:58:42.493Z,8.50
2017-11-26T12:01:10.842Z,5.00
2017-11-26T12:03:38.452Z,7.07
2017-11-26T12:06:06.089Z,8.00
2017-11-26T12:08:33.753Z,6.90
2017-11-26T12:11:02.163Z,5.20
2017-11-26T12:13:30.852Z,5.00
2017-11-26T12:16:00.386Z,6.07
2017-11-26T12:18:27.994Z,4.87
2017-11-26T12:20:55.563Z,5.20
2017-11-26T12:23:23.194Z,5.20
2017-11-26T12:25:50.780Z,5.30
2017-11-26T12:28:18.392Z,6.50
2017-11-26T12:30:46.555Z,5.60
2017-11-26T12:33:14.168Z,5.60
2017-11-26T12:35:42.594Z,5.57
2017-11-26T12:38:10.150Z,5.63
2017-11-26T12:40:37.726Z,6.37
2017-11-26T12:43:05.651Z,5.57
2017-11-26T12:45:33.442Z,5.77
2017-11-26T12:48:00.949Z,8.10
2017-11-26T12:50:28.532Z,6.33
2017-11-26T12:52:56.143Z,6.83
2017-11-26T12:55:23.726Z,6.10
2017-11-26T12:57:51.291Z,5.53
2017-11-26T13:00:18.851Z,6.83
2017-11-26T13:02:46.457Z,5.60
2017-11-26T13:05:14.049Z,5.10
2017-11-26T13:07:41.678Z,5.83
2017-11-26T13:10:10.174Z,4.73
2017-11-26T13:12:38.420Z,4.30
2017-11-26T13:15:06.934Z,5.80
2017-11-26T13:17:34.576Z,6.20
2017-11-26T13:20:02.539Z,5.47
2017-11-26T13:22:30.103Z,9.67
2017-11-26T13:24:57.791Z,6.47
2017-11-26T13:27:25.357Z,5.17
2017-11-26T13:29:52.924Z,5.30
2017-11-26T13:32:20.538Z,11.80
2017-11-26T13:34:48.094Z,8.03
2017-11-26T13:37:15.644Z,6.33
2017-11-26T13:39:43.294Z,6.67
2017-11-26T13:42:11.646Z,8.03
2017-11-26T13:44:40.018Z,8.50
2017-11-26T13:47:07.655Z,5.70
2017-11-26T13:49:35.282Z,6.40
2017-11-26T13:52:02.830Z,4.90
2017-11-26T13:54:30.373Z,6.77
2017-11-26T13:56:58.185Z,5.57
2017-11-26T13:59:25.762Z,7.97
2017-11-26T14:01:53.324Z,10.63
2017-11-26T14:04:20.875Z,10.43
2017-11-26T14:06:48.444Z,10.00
2017-11-26T14:09:16.059Z,10.80
2017-11-26T14:11:43.633Z,11.60
2017-11-26T14:14:12.276Z,12.63
2017-11-26T14:16:39.890Z,10.93
2017-11-26T14:19:07.445Z,10.93
2017-11-26T14:21:35.045Z,11.13
2017-11-26T14:24:02.625Z,10.60
2017-11-26T14:26:30.188Z,12.90
2017-11-26T14:28:57.787Z,11.80
2017-11-26T14:31:25.781Z,12.23
2017-11-26T14:33:53.321Z,14.03
2017-11-26T14:36:20.920Z,14.73
2017-11-26T14:38:48.475Z,13.60
2017-11-26T14:41:16.019Z,12.20
2017-11-26T14:43:43.587Z,16.00
2017-11-26T14:46:11.126Z,10.53
2017-11-26T14:48:38.751Z,12.63
2017-11-26T14:51:06.347Z,14.43
2017-11-26T14:53:33.942Z,12.77
2017-11-26T14:56:01.542Z,12.87
2017-11-26T14:58:29.974Z,16.40
2017-11-26T15:00:57.595Z,18.17
2017-11-26T15:03:25.980Z,17.20
2017-11-26T15:05:53.600Z,14.87
2017-11-26T15:08:21.185Z,19.47
2017-11-26T15:10:48.823Z,17.30
2017-11-26T15:13:16.437Z,17.07
2017-11-26T15:15:44.047Z,16.10
2017-11-26T15:18:13.187Z,11.47
2017-11-26T15:20:40.760Z,15.17
2017-11-26T15:23:08.390Z,15.70
2017-11-26T15:25:36.800Z,17.60
2017-11-26T15:28:04.391Z,12.67
2017-11-26T15:30:31.963Z,12.17
2017-11-26T15:32:59.547Z,14.53
2017-11-26T15:35:27.947Z,8.23
2017-11-26T15:37:55.516Z,10.13
2017-11-26T15:40:23.148Z,10.80
2017-11-26T15:42:50.787Z,9.87
2017-11-26T15:45:18.466Z,9.63
2017-11-26T15:47:46.141Z,11.07
2017-11-26T15:50:14.639Z,10.77
2017-11-26T15:52:42.214Z,9.47
2017-11-26T15:55:09.765Z,10.80
2017-11-26T15:57:37.335Z,8.83
2017-11-26T16:00:05.704Z,11.23
2017-11-26T16:02:33.341Z,11.50
2017-11-26T16:05:00.994Z,7.47
2017-11-26T16:07:28.617Z,9.83
2017-11-26T16:09:56.276Z,8.07
2017-11-26T16:12:23.836Z,8.90
2017-11-26T16:14:51.997Z,12.97
2017-11-26T16:17:19.535Z,7.87
2017-11-26T16:19:47.162Z,10.50
2017-11-26T16:22:14.923Z,8.90
2017-11-26T16:24:42.584Z,8.87
2017-11-26T16:27:10.767Z,10.10
2017-11-26T16:29:38.398Z,6.50
2017-11-26T16:32:05.999Z,8.27
2017-11-26T16:34:34.371Z,9.77
2017-11-26T16:37:01.983Z,9.90
2017-11-26T16:39:29.838Z,18.60
2017-11-26T16:41:58.436Z,11.07
2017-11-26T16:44:26.142Z,7.40
2017-11-26T16:46:54.524Z,7.00
2017-11-26T16:49:22.083Z,6.37
2017-11-26T16:51:49.669Z,11.77
2017-11-26T16:54:17.998Z,7.90
2017-11-26T16:56:46.518Z,9.30
2017-11-26T16:59:14.513Z,7.03
2017-11-26T17:01:43.083Z,8.83
2017-11-26T17:04:10.661Z,8.07
2017-11-26T17:06:39.149Z,7.73
2017-11-26T17:09:06.759Z,8.70
2017-11-26T17:11:36.171Z,7.47
2017-11-26T17:14:04.557Z,7.10
2017-11-26T17:16:32.170Z,8.20
2017-11-26T17:19:00.072Z,9.60
2017-11-26T17:21:28.450Z,6.23
2017-11-26T17:23:56.308Z,11.00
2017-11-26T17:26:23.870Z,9.83
2017-11-26T17:28:52.103Z,8.23
2017-11-26T17:31:19.680Z,5.60
2017-11-26T17:33:47.288Z,7.57
2017-11-26T17:36:16.619Z,7.30
2017-11-26T17:38:44.668Z,8.57
2017-11-26T17:41:14.930Z,5.17
2017-11-26T17:43:44.406Z,5.50
2017-11-26T17:46:12.946Z,4.33
2017-11-26T17:48:40.557Z,5.67
2017-11-26T17:51:08.198Z,6.57
2017-11-26T17:53:36.975Z,4.53
2017-11-26T17:56:04.605Z,7.07
2017-11-26T17:58:32.854Z,6.30
2017-11-26T18:01:00.628Z,5.47
2017-11-26T18:03:28.325Z,5.97
2017-11-26T18:05:55.925Z,4.97
2017-11-26T18:08:24.255Z,3.60
2017-11-26T18:10:51.981Z,2.97
2017-11-26T18:13:20.125Z,6.80
2017-11-26T18:15:48.041Z,5.03
2017-11-26T18:18:15.684Z,4.37
2017-11-26T18:20:43.455Z,8.93
2017-11-26T18:23:11.989Z,10.10
2017-11-26T18:25:40.776Z,5.20
2017-11-26T18:28:08.598Z,6.07
2017-11-26T18:30:36.350Z,6.03
2017-11-26T18:33:04.661Z,5.30
2017-11-26T18:35:33.326Z,4.60
2017-11-26T18:38:00.902Z,4.97
2017-11-26T18:40:28.753Z,4.23
2017-11-26T18:42:56.282Z,6.33
2017-11-26T18:45:24.468Z,5.50
2017-11-26T18:47:52.129Z,4.30
2017-11-26T18:50:19.833Z,4.23
2017-11-26T18:52:47.334Z,5.70
2017-11-26T18:55:14.902Z,7.40
2017-11-26T18:57:42.493Z,7.90
2017-11-26T19:00:10.099Z,4.77
2017-11-26T19:02:37.693Z,5.60
2017-11-26T19:05:06.119Z,5.13
2017-11-26T19:07:33.644Z,7.27
2017-11-26T19:10:01.192Z,5.90
2017-11-26T19:12:29.909Z,6.50
2017-11-26T19:14:57.478Z,5.33
2017-11-26T19:17:25.014Z,9.53
2017-11-26T19:19:52.540Z,7.83
2017-11-26T19:22:20.097Z,11.00
2017-11-26T19:24:47.683Z,5.87
2017-11-26T19:27:15.225Z,7.47
2017-11-26T19:29:43.561Z,5.47
2017-11-26T19:32:11.098Z,6.10
2017-11-26T19:34:39.479Z,5.73
2017-11-26T19:37:06.992Z,7.27
2017-11-26T19:39:35.328Z,6.90
2017-11-26T19:42:02.960Z,10.07
2017-11-26T19:44:30.481Z,6.20
2017-11-26T19:46:58.020Z,6.47
2017-11-26T19:49:26.050Z,4.50
2017-11-26T19:51:53.640Z,6.60
2017-11-26T19:54:21.226Z,6.50
2017-11-26T19:56:49.476Z,6.40
2017-11-26T19:59:17.050Z,7.83
2017-11-26T20:01:44.742Z,5.20
2017-11-26T20:04:13.058Z,8.17
2017-11-26T20:06:40.712Z,7.03
2017-11-26T20:09:08.326Z,19.80
2017-11-26T20:11:36.647Z,15.83
2017-11-26T20:14:04.232Z,29.43
2017-11-26T20:16:31.808Z,14.10
2017-11-26T20:19:00.558Z,11.53
2017-11-26T20:21:29.436Z,13.10
2017-11-26T20:23:57.214Z,11.00
2017-11-26T20:26:24.725Z,9.63
2017-11-26T20:28:52.340Z,9.90
2017-11-26T20:31:19.943Z,12.77
2017-11-26T20:33:48.274Z,10.33
2017-11-26T20:36:16.316Z,10.60
2017-11-26T20:38:44.400Z,11.40
2017-11-26T20:41:11.941Z,12.00
2017-11-26T20:43:40.266Z,9.87
2017-11-26T20:46:07.942Z,8.27
2017-11-26T20:48:36.349Z,10.33
2017-11-26T20:51:04.937Z,8.00
2017-11-26T20:53:33.221Z,7.33
2017-11-26T20:56:01.550Z,9.23
2017-11-26T20:58:29.713Z,11.00
2017-11-26T21:00:57.473Z,7.50
2017-11-26T21:03:25.489Z,9.13
2017-11-26T21:05:53.829Z,8.20
2017-11-26T21:08:21.388Z,8.70
2017-11-26T21:10:48.921Z,8.90
2017-11-26T21:13:16.480Z,7.03
2017-11-26T21:15:43.983Z,8.23
2017-11-26T21:18:11.593Z,6.57
2017-11-26T21:20:39.387Z,7.90
2017-11-26T21:23:06.922Z,7.03
2017-11-26T21:25:34.469Z,7.67
2017-11-26T21:28:02.807Z,5.73
2017-11-26T21:30:30.444Z,6.20
2017-11-26T21:32:58.041Z,7.03
2017-11-26T21:35:26.264Z,6.47
2017-11-26T21:37:53.895Z,15.17
2017-11-26T21:40:21.487Z,6.30
2017-11-26T21:42:49.050Z,5.83
2017-11-26T21:45:16.547Z,6.20
2017-11-26T21:47:44.116Z,6.00
2017-11-26T21:50:12.718Z,6.93
2017-11-26T21:52:40.269Z,8.07
2017-11-26T21:55:08.672Z,5.43
2017-11-26T21:57:36.998Z,5.30
2017-11-26T22:00:05.365Z,5.37
2017-11-26T22:02:32.885Z,6.23
2017-11-26T22:05:00.464Z,6.17
2017-11-26T22:07:28.018Z,6.27
2017-11-26T22:09:55.521Z,5.20
2017-11-26T22:12:23.086Z,6.50
2017-11-26T22:14:50.649Z,5.27
2017-11-26T22:17:18.260Z,5.90
2017-11-26T22:19:45.882Z,6.03
2017-11-26T22:22:13.416Z,6.50
2017-11-26T22:24:40.972Z,5.90
2017-11-26T22:27:08.542Z,5.53
2017-11-26T22:29:36.112Z,7.27
2017-11-26T22:32:03.656Z,6.00
2017-11-26T22:34:31.205Z,5.77
2017-11-26T22:36:58.824Z,8.10
2017-11-26T22:39:26.403Z,7.77
2017-11-26T22:41:53.948Z,8.60
2017-11-26T22:44:21.531Z,7.20
2017-11-26T22:46:49.071Z,7.10
2017-11-26T22:49:16.616Z,6.03
2017-11-26T22:51:44.922Z,7.53
2017-11-26T22:54:12.462Z,8.43
2017-11-26T22:56:40.070Z,6.37
2017-11-26T22:59:07.605Z,6.20
2017-11-26T23:01:35.152Z,5.97
2017-11-26T23:04:02.678Z,5.50
2017-11-26T23:06:30.256Z,7.53
2017-11-26T23:08:58.567Z,9.07
2017-11-26T23:11:26.150Z,6.77
2017-11-26T23:13:53.713Z,6.40
2017-11-26T23:16:21.326Z,6.63
2017-11-26T23:18:49.631Z,6.90
2017-11-26T23:21:17.215Z,5.97
2017-11-26T23:23:44.758Z,7.37
2017-11-26T23:26:12.341Z,8.47
2017-11-26T23:28:39.933Z,5.80
2017-11-26T23:31:07.484Z,7.53
2017-11-26T23:33:35.331Z,6.67
2017-11-26T23:36:03.463Z,8.07
2017-11-26T23:38:31.037Z,8.50
2017-11-26T23:40:58.603Z,9.53
2017-11-26T23:43:26.335Z,8.50
2017-11-26T23:45:53.915Z,10.00
2017-11-26T23:48:21.435Z,9.73
2017-11-26T23:50:48.935Z,7.60
2017-11-26T23:53:17.660Z,8.17
2017-11-26T23:55:45.213Z,9.20
2017-11-26T23:58:13.512Z,8.10
